sensor_id;sensor_type;location;lat;lon;timestamp;pressure;altitude;pressure_sealevel;temperature;humidity
141;BME280;65;48.778;9.160;2023-01-28T00:01:17;99152.38;;;0.32;96.67
141;BME280;65;48.778;9.160;2023-01-28T00:03:42;99160.13;;;0.37;96.58
141;BME280;65;48.778;9.160;2023-01-28T00:06:11;99161.91;;;0.32;96.45
141;BME280;65;48.778;9.160;2023-01-28T00:08:37;99149.72;;;0.39;96.20
141;BME280;65;48.778;9.160;2023-01-28T00:11:04;99151.47;;;0.38;95.28
141;BME280;65;48.778;9.160;2023-01-28T00:13:30;99149.69;;;0.45;94.27
141;BME280;65;48.778;9.160;2023-01-28T00:15:57;99141.03;;;0.43;94.72
141;BME280;65;48.778;9.160;2023-01-28T00:18:24;99147.09;;;0.42;94.56
141;BME280;65;48.778;9.160;2023-01-28T00:23:26;99150.59;;;0.41;94.72
141;BME280;65;48.778;9.160;2023-01-28T00:25:52;99150.59;;;0.41;94.97
141;BME280;65;48.778;9.160;2023-01-28T00:28:19;99154.06;;;0.38;96.41
141;BME280;65;48.778;9.160;2023-01-28T00:30:45;99147.16;;;0.36;95.88
141;BME280;65;48.778;9.160;2023-01-28T00:33:10;99147.94;;;0.47;94.03
141;BME280;65;48.778;9.160;2023-01-28T00:35:35;99146.25;;;0.41;94.42
141;BME280;65;48.778;9.160;2023-01-28T00:38:01;99143.66;;;0.40;94.84
141;BME280;65;48.778;9.160;2023-01-28T00:40:28;99139.31;;;0.39;95.11
141;BME280;65;48.778;9.160;2023-01-28T00:42:53;99137.56;;;0.41;94.85
141;BME280;65;48.778;9.160;2023-01-28T00:45:19;99130.63;;;0.44;95.22
141;BME280;65;48.778;9.160;2023-01-28T00:47:44;99136.69;;;0.42;94.58
141;BME280;65;48.778;9.160;2023-01-28T00:50:10;99140.19;;;0.39;95.82
141;BME280;65;48.778;9.160;2023-01-28T00:52:35;99139.34;;;0.37;96.12
141;BME280;65;48.778;9.160;2023-01-28T00:55:01;99135.00;;;0.36;95.90
141;BME280;65;48.778;9.160;2023-01-28T00:57:26;99136.72;;;0.39;95.72
141;BME280;65;48.778;9.160;2023-01-28T00:59:52;99135.00;;;0.36;96.24
141;BME280;65;48.778;9.160;2023-01-28T01:02:17;99141.94;;;0.39;96.26
141;BME280;65;48.778;9.160;2023-01-28T01:04:43;99141.03;;;0.41;95.19
141;BME280;65;48.778;9.160;2023-01-28T01:07:22;99139.31;;;0.40;95.60
141;BME280;65;48.778;9.160;2023-01-28T01:09:58;99130.59;;;0.46;95.65
141;BME280;65;48.778;9.160;2023-01-28T01:12:25;99135.78;;;0.50;94.51
141;BME280;65;48.778;9.160;2023-01-28T01:14:50;99137.53;;;0.48;94.32
141;BME280;65;48.778;9.160;2023-01-28T01:17:15;99134.06;;;0.46;95.08
141;BME280;65;48.778;9.160;2023-01-28T01:19:41;99141.81;;;0.54;94.16
141;BME280;65;48.778;9.160;2023-01-28T01:22:07;99145.28;;;0.53;94.41
141;BME280;65;48.778;9.160;2023-01-28T01:24:32;99140.06;;;0.54;94.43
141;BME280;65;48.778;9.160;2023-01-28T01:26:58;99147.03;;;0.51;95.52
141;BME280;65;48.778;9.160;2023-01-28T01:29:24;99147.06;;;0.48;95.15
141;BME280;65;48.778;9.160;2023-01-28T01:31:49;99148.84;;;0.43;95.79
141;BME280;65;48.778;9.160;2023-01-28T01:34:14;99143.56;;;0.50;95.65
141;BME280;65;48.778;9.160;2023-01-28T01:36:40;99152.22;;;0.54;95.69
141;BME280;65;48.778;9.160;2023-01-28T01:39:11;99148.75;;;0.52;95.50
141;BME280;65;48.778;9.160;2023-01-28T01:41:36;99152.22;;;0.54;95.46
141;BME280;65;48.778;9.160;2023-01-28T01:44:03;99153.03;;;0.57;95.23
141;BME280;65;48.778;9.160;2023-01-28T01:46:37;99156.59;;;0.49;95.99
141;BME280;65;48.778;9.160;2023-01-28T01:49:14;99152.25;;;0.48;96.23
141;BME280;65;48.778;9.160;2023-01-28T01:51:44;99157.47;;;0.48;96.56
141;BME280;65;48.778;9.160;2023-01-28T01:54:10;99150.53;;;0.47;96.65
141;BME280;65;48.778;9.160;2023-01-28T01:56:39;99155.72;;;0.50;96.70
141;BME280;65;48.778;9.160;2023-01-28T01:59:11;99154.91;;;0.42;97.09
141;BME280;65;48.778;9.160;2023-01-28T02:01:37;99160.91;;;0.48;96.26
141;BME280;65;48.778;9.160;2023-01-28T02:04:10;99159.13;;;0.55;95.72
141;BME280;65;48.778;9.160;2023-01-28T02:06:38;99160.88;;;0.56;96.45
141;BME280;65;48.778;9.160;2023-01-28T02:09:24;99159.19;;;0.47;97.13
141;BME280;65;48.778;9.160;2023-01-28T02:12:12;99155.66;;;0.56;96.46
141;BME280;65;48.778;9.160;2023-01-28T02:14:44;99147.84;;;0.63;95.61
141;BME280;65;48.778;9.160;2023-01-28T02:17:11;99152.22;;;0.54;96.99
141;BME280;65;48.778;9.160;2023-01-28T02:19:41;99153.09;;;0.51;97.22
141;BME280;65;48.778;9.160;2023-01-28T02:25:33;99159.16;;;0.52;97.40
141;BME280;65;48.778;9.160;2023-01-28T02:28:08;99162.63;;;0.52;96.93
141;BME280;65;48.778;9.160;2023-01-28T02:31:08;99159.94;;;0.68;95.47
141;BME280;65;48.778;9.160;2023-01-28T02:36:30;99161.75;;;0.53;97.27
141;BME280;65;48.778;9.160;2023-01-28T02:39:05;99156.53;;;0.53;97.09
141;BME280;65;48.778;9.160;2023-01-28T02:41:38;99153.94;;;0.55;98.06
141;BME280;65;48.778;9.160;2023-01-28T02:44:05;99161.75;;;0.52;97.62
141;BME280;65;48.778;9.160;2023-01-28T02:49:26;99158.34;;;0.47;98.38
141;BME280;65;48.778;9.160;2023-01-28T02:52:11;99164.41;;;0.46;98.58
141;BME280;65;48.778;9.160;2023-01-28T02:54:57;99163.50;;;0.53;97.69
141;BME280;65;48.778;9.160;2023-01-28T02:57:39;99169.53;;;0.55;97.87
141;BME280;65;48.778;9.160;2023-01-28T03:06:31;99179.09;;;0.53;98.65
141;BME280;65;48.778;9.160;2023-01-28T03:09:07;99179.09;;;0.51;98.52
141;BME280;65;48.778;9.160;2023-01-28T03:14:46;99173.00;;;0.54;98.87
141;BME280;65;48.778;9.160;2023-01-28T03:17:38;99179.97;;;0.52;99.69
141;BME280;65;48.778;9.160;2023-01-28T03:20:26;99177.34;;;0.59;98.76
141;BME280;65;48.778;9.160;2023-01-28T03:23:21;99179.06;;;0.54;99.90
141;BME280;65;48.778;9.160;2023-01-28T03:26:07;99177.34;;;0.55;100.00
141;BME280;65;48.778;9.160;2023-01-28T03:28:57;99185.19;;;0.50;100.00
141;BME280;65;48.778;9.160;2023-01-28T03:31:42;99181.75;;;0.47;100.00
141;BME280;65;48.778;9.160;2023-01-28T03:34:26;99176.53;;;0.47;100.00
141;BME280;65;48.778;9.160;2023-01-28T03:37:11;99173.13;;;0.40;100.00
141;BME280;65;48.778;9.160;2023-01-28T03:39:39;99180.09;;;0.35;100.00
141;BME280;65;48.778;9.160;2023-01-28T03:42:10;99174.91;;;0.30;100.00
141;BME280;65;48.778;9.160;2023-01-28T03:44:36;99190.53;;;0.27;100.00
141;BME280;65;48.778;9.160;2023-01-28T03:47:22;99186.22;;;0.22;100.00
141;BME280;65;48.778;9.160;2023-01-28T03:53:14;99199.25;;;0.17;100.00
141;BME280;65;48.778;9.160;2023-01-28T03:55:44;99198.38;;;0.20;100.00
141;BME280;65;48.778;9.160;2023-01-28T03:58:10;99197.50;;;0.19;100.00
141;BME280;65;48.778;9.160;2023-01-28T04:00:37;99188.81;;;0.23;100.00
141;BME280;65;48.778;9.160;2023-01-28T04:03:07;99195.75;;;0.24;100.00
141;BME280;65;48.778;9.160;2023-01-28T04:05:44;99194.00;;;0.25;100.00
141;BME280;65;48.778;9.160;2023-01-28T04:08:10;99190.53;;;0.29;100.00
141;BME280;65;48.778;9.160;2023-01-28T04:10:40;99191.41;;;0.26;100.00
141;BME280;65;48.778;9.160;2023-01-28T04:13:06;99195.72;;;0.30;100.00
141;BME280;65;48.778;9.160;2023-01-28T04:15:31;99190.50;;;0.34;100.00
141;BME280;65;48.778;9.160;2023-01-28T04:17:57;99191.38;;;0.31;100.00
141;BME280;65;48.778;9.160;2023-01-28T04:20:23;99196.56;;;0.31;100.00
141;BME280;65;48.778;9.160;2023-01-28T04:22:48;99205.25;;;0.30;100.00
141;BME280;65;48.778;9.160;2023-01-28T04:25:13;99198.28;;;0.35;100.00
141;BME280;65;48.778;9.160;2023-01-28T04:27:39;99206.94;;;0.36;100.00
141;BME280;65;48.778;9.160;2023-01-28T04:30:05;99207.81;;;0.36;100.00
141;BME280;65;48.778;9.160;2023-01-28T04:32:30;99215.59;;;0.38;100.00
141;BME280;65;48.778;9.160;2023-01-28T04:34:55;99206.88;;;0.45;100.00
141;BME280;65;48.778;9.160;2023-01-28T04:37:21;99213.91;;;0.34;100.00
141;BME280;65;48.778;9.160;2023-01-28T04:40:17;99219.06;;;0.37;100.00
141;BME280;65;48.778;9.160;2023-01-28T04:42:51;99219.91;;;0.43;100.00
141;BME280;65;48.778;9.160;2023-01-28T04:45:17;99224.22;;;0.46;100.00
141;BME280;65;48.778;9.160;2023-01-28T04:47:42;99228.50;;;0.51;100.00
141;BME280;65;48.778;9.160;2023-01-28T04:50:08;99225.00;;;0.55;100.00
141;BME280;65;48.778;9.160;2023-01-28T04:52:33;99225.03;;;0.51;100.00
141;BME280;65;48.778;9.160;2023-01-28T04:54:59;99227.66;;;0.49;100.00
141;BME280;65;48.778;9.160;2023-01-28T04:57:25;99224.22;;;0.44;100.00
141;BME280;65;48.778;9.160;2023-01-28T04:59:50;99235.47;;;0.48;100.00
141;BME280;65;48.778;9.160;2023-01-28T05:02:16;99230.25;;;0.52;100.00
141;BME280;65;48.778;9.160;2023-01-28T05:04:41;99232.00;;;0.49;100.00
141;BME280;65;48.778;9.160;2023-01-28T05:07:06;99229.34;;;0.56;100.00
141;BME280;65;48.778;9.160;2023-01-28T05:09:32;99242.38;;;0.58;100.00
141;BME280;65;48.778;9.160;2023-01-28T05:11:57;99228.53;;;0.50;100.00
141;BME280;65;48.778;9.160;2023-01-28T05:14:22;99240.66;;;0.48;100.00
141;BME280;65;48.778;9.160;2023-01-28T05:16:49;99238.06;;;0.49;100.00
141;BME280;65;48.778;9.160;2023-01-28T05:19:14;99236.34;;;0.47;100.00
141;BME280;65;48.778;9.160;2023-01-28T05:21:40;99225.03;;;0.51;100.00
141;BME280;65;48.778;9.160;2023-01-28T05:24:05;99238.09;;;0.45;100.00
141;BME280;65;48.778;9.160;2023-01-28T05:26:31;99239.81;;;0.47;100.00
141;BME280;65;48.778;9.160;2023-01-28T05:28:59;99242.34;;;0.55;100.00
141;BME280;65;48.778;9.160;2023-01-28T05:31:24;99242.38;;;0.53;100.00
141;BME280;65;48.778;9.160;2023-01-28T05:33:50;99240.66;;;0.49;100.00
141;BME280;65;48.778;9.160;2023-01-28T05:36:17;99232.03;;;0.43;100.00
141;BME280;65;48.778;9.160;2023-01-28T05:38:42;99224.25;;;0.40;100.00
141;BME280;65;48.778;9.160;2023-01-28T05:41:08;99230.31;;;0.39;100.00
141;BME280;65;48.778;9.160;2023-01-28T05:43:33;99235.56;;;0.32;100.00
141;BME280;65;48.778;9.160;2023-01-28T05:45:58;99240.75;;;0.32;100.00
141;BME280;65;48.778;9.160;2023-01-28T05:48:24;99232.06;;;0.37;100.00
141;BME280;65;48.778;9.160;2023-01-28T05:50:49;99228.63;;;0.31;100.00
141;BME280;65;48.778;9.160;2023-01-28T05:53:14;99233.81;;;0.35;100.00
141;BME280;65;48.778;9.160;2023-01-28T05:55:40;99232.09;;;0.34;100.00
141;BME280;65;48.778;9.160;2023-01-28T05:58:05;99237.19;;;0.49;100.00
141;BME280;65;48.778;9.160;2023-01-28T06:00:30;99243.31;;;0.43;100.00
141;BME280;65;48.778;9.160;2023-01-28T06:02:56;99240.72;;;0.39;100.00
141;BME280;65;48.778;9.160;2023-01-28T06:05:22;99239.00;;;0.38;100.00
141;BME280;65;48.778;9.160;2023-01-28T06:07:47;99239.84;;;0.40;100.00
141;BME280;65;48.778;9.160;2023-01-28T06:10:14;99244.22;;;0.36;100.00
141;BME280;65;48.778;9.160;2023-01-28T06:12:42;99247.69;;;0.32;100.00
141;BME280;65;48.778;9.160;2023-01-28T06:15:10;99255.50;;;0.34;100.00
141;BME280;65;48.778;9.160;2023-01-28T06:17:36;99257.22;;;0.31;100.00
141;BME280;65;48.778;9.160;2023-01-28T06:20:02;99258.97;;;0.31;100.00
141;BME280;65;48.778;9.160;2023-01-28T06:22:27;99268.50;;;0.34;100.00
141;BME280;65;48.778;9.160;2023-01-28T06:24:53;99269.31;;;0.39;100.00
141;BME280;65;48.778;9.160;2023-01-28T06:27:18;99271.91;;;0.42;100.00
141;BME280;65;48.778;9.160;2023-01-28T06:29:43;99284.91;;;0.40;100.00
141;BME280;65;48.778;9.160;2023-01-28T06:32:09;99281.41;;;0.46;100.00
141;BME280;65;48.778;9.160;2023-01-28T06:34:34;99287.47;;;0.51;100.00
141;BME280;65;48.778;9.160;2023-01-28T06:37:00;99294.38;;;0.52;100.00
141;BME280;65;48.778;9.160;2023-01-28T06:39:25;99290.06;;;0.51;100.00
141;BME280;65;48.778;9.160;2023-01-28T06:41:53;99297.84;;;0.58;100.00
141;BME280;65;48.778;9.160;2023-01-28T06:44:18;99295.25;;;0.60;100.00
141;BME280;65;48.778;9.160;2023-01-28T06:46:44;99301.31;;;0.62;100.00
141;BME280;65;48.778;9.160;2023-01-28T06:49:09;99305.66;;;0.52;100.00
141;BME280;65;48.778;9.160;2023-01-28T06:51:35;99304.78;;;0.53;100.00
141;BME280;65;48.778;9.160;2023-01-28T06:54:00;99301.31;;;0.54;100.00
141;BME280;65;48.778;9.160;2023-01-28T06:56:25;99310.84;;;0.55;100.00
141;BME280;65;48.778;9.160;2023-01-28T06:58:54;99308.25;;;0.51;100.00
141;BME280;65;48.778;9.160;2023-01-28T07:01:19;99315.22;;;0.46;100.00
141;BME280;65;48.778;9.160;2023-01-28T07:03:45;99310.88;;;0.46;100.00
141;BME280;65;48.778;9.160;2023-01-28T07:06:10;99311.75;;;0.50;100.00
141;BME280;65;48.778;9.160;2023-01-28T07:08:36;99306.50;;;0.56;100.00
141;BME280;65;48.778;9.160;2023-01-28T07:11:02;99304.78;;;0.55;100.00
141;BME280;65;48.778;9.160;2023-01-28T07:13:29;99314.31;;;0.59;100.00
141;BME280;65;48.778;9.160;2023-01-28T07:15:55;99309.97;;;0.56;100.00
141;BME280;65;48.778;9.160;2023-01-28T07:18:20;99311.72;;;0.60;100.00
141;BME280;65;48.778;9.160;2023-01-28T07:20:46;99326.44;;;0.57;100.00
141;BME280;65;48.778;9.160;2023-01-28T07:23:11;99327.31;;;0.62;100.00
141;BME280;65;48.778;9.160;2023-01-28T07:25:37;99328.13;;;0.70;100.00
141;BME280;65;48.778;9.160;2023-01-28T07:28:03;99327.25;;;0.71;100.00
141;BME280;65;48.778;9.160;2023-01-28T07:30:29;99326.41;;;0.69;100.00
141;BME280;65;48.778;9.160;2023-01-28T07:32:56;99321.19;;;0.69;100.00
141;BME280;65;48.778;9.160;2023-01-28T07:35:22;99332.38;;;0.83;100.00
141;BME280;65;48.778;9.160;2023-01-28T07:37:59;99336.72;;;0.84;100.00
141;BME280;65;48.778;9.160;2023-01-28T07:40:25;99333.22;;;0.87;100.00
141;BME280;65;48.778;9.160;2023-01-28T07:42:51;99334.94;;;0.92;100.00
141;BME280;65;48.778;9.160;2023-01-28T07:45:19;99341.00;;;0.91;100.00
141;BME280;65;48.778;9.160;2023-01-28T07:47:53;99334.94;;;0.92;100.00
141;BME280;65;48.778;9.160;2023-01-28T07:50:18;99334.94;;;0.91;100.00
141;BME280;65;48.778;9.160;2023-01-28T07:52:44;99343.59;;;0.94;100.00
141;BME280;65;48.778;9.160;2023-01-28T07:55:10;99337.47;;;1.00;100.00
141;BME280;65;48.778;9.160;2023-01-28T07:58:00;99342.69;;;1.00;100.00
141;BME280;65;48.778;9.160;2023-01-28T08:00:38;99353.03;;;1.11;100.00
141;BME280;65;48.778;9.160;2023-01-28T08:03:05;99358.22;;;1.14;100.00
141;BME280;65;48.778;9.160;2023-01-28T08:08:08;99346.94;;;1.12;100.00
141;BME280;65;48.778;9.160;2023-01-28T08:10:35;99356.47;;;1.17;100.00
141;BME280;65;48.778;9.160;2023-01-28T08:13:00;99357.34;;;1.18;100.00
141;BME280;65;48.778;9.160;2023-01-28T08:15:26;99363.41;;;1.21;100.00
141;BME280;65;48.778;9.160;2023-01-28T08:17:53;99361.69;;;1.19;100.00
141;BME280;65;48.778;9.160;2023-01-28T08:20:19;99365.09;;;1.27;100.00
141;BME280;65;48.778;9.160;2023-01-28T08:22:45;99369.41;;;1.31;100.00
141;BME280;65;48.778;9.160;2023-01-28T08:25:10;99366.81;;;1.31;100.00
141;BME280;65;48.778;9.160;2023-01-28T08:27:36;99365.00;;;1.41;100.00
141;BME280;65;48.778;9.160;2023-01-28T08:30:01;99361.47;;;1.46;100.00
141;BME280;65;48.778;9.160;2023-01-28T08:32:28;99368.44;;;1.44;100.00
141;BME280;65;48.778;9.160;2023-01-28T08:34:54;99371.03;;;1.46;100.00
141;BME280;65;48.778;9.160;2023-01-28T08:37:20;99371.06;;;1.41;100.00
141;BME280;65;48.778;9.160;2023-01-28T08:39:45;99367.56;;;1.44;100.00
141;BME280;65;48.778;9.160;2023-01-28T08:42:10;99367.50;;;1.53;100.00
141;BME280;65;48.778;9.160;2023-01-28T08:44:36;99370.03;;;1.59;100.00
141;BME280;65;48.778;9.160;2023-01-28T08:47:01;99363.91;;;1.66;100.00
141;BME280;65;48.778;9.160;2023-01-28T08:49:26;99363.00;;;1.70;100.00
141;BME280;65;48.778;9.160;2023-01-28T08:51:52;99363.78;;;1.81;100.00
141;BME280;65;48.778;9.160;2023-01-28T08:54:17;99368.91;;;1.90;98.72
141;BME280;65;48.778;9.160;2023-01-28T08:56:43;99365.34;;;1.99;98.36
141;BME280;65;48.778;9.160;2023-01-28T08:59:10;99375.72;;;2.07;99.63
141;BME280;65;48.778;9.160;2023-01-28T09:01:36;99373.88;;;2.16;97.35
141;BME280;65;48.778;9.160;2023-01-28T09:04:01;99372.88;;;2.27;97.45
141;BME280;65;48.778;9.160;2023-01-28T09:06:27;99374.56;;;2.31;96.13
141;BME280;65;48.778;9.160;2023-01-28T09:08:56;99373.72;;;2.32;96.44
141;BME280;65;48.778;9.160;2023-01-28T09:11:21;99366.78;;;2.28;95.48
141;BME280;65;48.778;9.160;2023-01-28T09:13:47;99372.84;;;2.30;96.26
141;BME280;65;48.778;9.160;2023-01-28T09:16:12;99379.88;;;2.23;95.58
141;BME280;65;48.778;9.160;2023-01-28T09:18:38;99373.13;;;2.04;97.09
141;BME280;65;48.778;9.160;2023-01-28T09:21:05;99385.03;;;2.28;96.64
141;BME280;65;48.778;9.160;2023-01-28T09:23:33;99376.31;;;2.35;95.24
141;BME280;65;48.778;9.160;2023-01-28T09:26:00;99386.59;;;2.47;95.03
141;BME280;65;48.778;9.160;2023-01-28T09:28:25;99381.28;;;2.54;94.70
141;BME280;65;48.778;9.160;2023-01-28T09:30:51;99392.72;;;2.44;96.00
141;BME280;65;48.778;9.160;2023-01-28T09:33:16;99403.28;;;2.32;96.18
141;BME280;65;48.778;9.160;2023-01-28T09:35:42;99404.97;;;2.36;95.56
141;BME280;65;48.778;9.160;2023-01-28T09:38:07;99407.47;;;2.45;94.19
141;BME280;65;48.778;9.160;2023-01-28T09:40:40;99399.75;;;2.38;94.61
141;BME280;65;48.778;9.160;2023-01-28T09:46:04;99396.19;;;2.43;93.80
141;BME280;65;48.778;9.160;2023-01-28T09:48:44;99410.22;;;2.35;94.61
141;BME280;65;48.778;9.160;2023-01-28T09:53:45;99423.31;;;2.27;94.43
141;BME280;65;48.778;9.160;2023-01-28T09:56:24;99415.41;;;2.36;93.17
141;BME280;65;48.778;9.160;2023-01-28T09:58:50;99407.44;;;2.50;93.44
141;BME280;65;48.778;9.160;2023-01-28T10:12:26;99422.28;;;2.45;95.24
141;BME280;65;48.778;9.160;2023-01-28T10:18:12;99409.00;;;2.63;93.65
141;BME280;65;48.778;9.160;2023-01-28T10:20:43;99402.84;;;2.69;92.40
141;BME280;65;48.778;9.160;2023-01-28T10:23:43;99405.44;;;2.70;92.74
141;BME280;65;48.778;9.160;2023-01-28T10:26:23;99402.00;;;2.67;93.13
141;BME280;65;48.778;9.160;2023-01-28T10:28:53;99395.00;;;2.70;92.05
141;BME280;65;48.778;9.160;2023-01-28T10:31:20;99397.72;;;2.61;93.29
141;BME280;65;48.778;9.160;2023-01-28T10:33:46;99400.22;;;2.72;92.23
141;BME280;65;48.778;9.160;2023-01-28T10:36:13;99398.31;;;2.83;91.80
141;BME280;65;48.778;9.160;2023-01-28T10:38:39;99387.81;;;2.88;90.59
141;BME280;65;48.778;9.160;2023-01-28T10:41:05;99395.66;;;2.89;90.93
141;BME280;65;48.778;9.160;2023-01-28T10:43:36;99386.06;;;2.91;90.31
141;BME280;65;48.778;9.160;2023-01-28T10:46:10;99387.91;;;2.81;89.95
141;BME280;65;48.778;9.160;2023-01-28T10:51:11;99387.00;;;2.84;90.47
141;BME280;65;48.778;9.160;2023-01-28T10:53:45;99379.00;;;2.98;89.59
141;BME280;65;48.778;9.160;2023-01-28T10:56:15;99382.47;;;3.00;88.96
141;BME280;65;48.778;9.160;2023-01-28T10:59:02;99391.16;;;3.00;89.29
141;BME280;65;48.778;9.160;2023-01-28T11:01:42;99389.25;;;3.11;87.76
141;BME280;65;48.778;9.160;2023-01-28T11:04:24;99391.06;;;3.08;88.53
141;BME280;65;48.778;9.160;2023-01-28T11:07:17;99394.50;;;3.10;87.32
141;BME280;65;48.778;9.160;2023-01-28T11:09:48;99396.13;;;3.18;87.97
141;BME280;65;48.778;9.160;2023-01-28T11:12:25;99392.03;;;3.01;89.27
141;BME280;65;48.778;9.160;2023-01-28T11:17:21;99393.03;;;2.88;90.89
141;BME280;65;48.778;9.160;2023-01-28T11:19:50;99399.09;;;2.93;90.28
141;BME280;65;48.778;9.160;2023-01-28T11:25:00;99395.59;;;2.95;91.78
141;BME280;65;48.778;9.160;2023-01-28T11:27:29;99402.34;;;3.10;90.00
141;BME280;65;48.778;9.160;2023-01-28T11:29:56;99397.09;;;3.11;89.63
141;BME280;65;48.778;9.160;2023-01-28T11:32:24;99394.59;;;3.04;88.10
141;BME280;65;48.778;9.160;2023-01-28T11:34:53;99395.38;;;3.10;89.01
141;BME280;65;48.778;9.160;2023-01-28T11:37:23;99396.50;;;2.93;89.47
141;BME280;65;48.778;9.160;2023-01-28T11:42:27;99408.78;;;2.81;90.12
141;BME280;65;48.778;9.160;2023-01-28T11:44:52;99410.56;;;2.78;89.92
141;BME280;65;48.778;9.160;2023-01-28T11:50:32;99393.34;;;2.63;91.22
141;BME280;65;48.778;9.160;2023-01-28T11:53:16;99400.31;;;2.63;92.25
141;BME280;65;48.778;9.160;2023-01-28T12:09:55;99398.91;;;2.36;94.09
141;BME280;65;48.778;9.160;2023-01-28T12:12:43;99405.00;;;2.30;94.68
141;BME280;65;48.778;9.160;2023-01-28T12:19:20;99412.84;;;2.30;94.90
141;BME280;65;48.778;9.160;2023-01-28T12:22:13;99410.31;;;2.22;96.07
141;BME280;65;48.778;9.160;2023-01-28T12:33:42;99407.72;;;2.19;95.92
141;BME280;65;48.778;9.160;2023-01-28T12:41:46;99412.84;;;2.29;94.54
141;BME280;65;48.778;9.160;2023-01-28T12:44:27;99410.28;;;2.26;94.61
141;BME280;65;48.778;9.160;2023-01-28T12:46:57;99403.28;;;2.31;95.24
141;BME280;65;48.778;9.160;2023-01-28T12:49:31;99399.91;;;2.19;97.78
141;BME280;65;48.778;9.160;2023-01-28T12:54:52;99391.06;;;2.36;96.27
141;BME280;65;48.778;9.160;2023-01-28T12:57:28;99389.28;;;2.39;96.20
141;BME280;65;48.778;9.160;2023-01-28T13:05:38;99393.41;;;2.60;92.61
141;BME280;65;48.778;9.160;2023-01-28T13:08:14;99389.88;;;2.64;92.06
141;BME280;65;48.778;9.160;2023-01-28T13:10:43;99388.41;;;2.42;95.38
141;BME280;65;48.778;9.160;2023-01-28T13:13:40;99395.44;;;2.34;95.02
141;BME280;65;48.778;9.160;2023-01-28T13:16:07;99394.66;;;2.24;97.51
141;BME280;65;48.778;9.160;2023-01-28T13:26:36;99405.25;;;2.07;100.00
141;BME280;65;48.778;9.160;2023-01-28T13:31:40;99407.59;;;2.35;99.69
141;BME280;65;48.778;9.160;2023-01-28T13:34:07;99406.00;;;2.20;100.00
141;BME280;65;48.778;9.160;2023-01-28T13:36:52;99407.66;;;2.26;100.00
141;BME280;65;48.778;9.160;2023-01-28T13:39:22;99407.81;;;2.10;100.00
141;BME280;65;48.778;9.160;2023-01-28T13:42:22;99408.78;;;2.02;100.00
141;BME280;65;48.778;9.160;2023-01-28T13:44:48;99404.41;;;2.05;100.00
141;BME280;65;48.778;9.160;2023-01-28T13:47:21;99400.91;;;2.08;100.00
141;BME280;65;48.778;9.160;2023-01-28T13:50:34;99409.59;;;2.08;100.00
141;BME280;65;48.778;9.160;2023-01-28T13:52:41;99412.22;;;2.05;100.00
141;BME280;65;48.778;9.160;2023-01-28T14:12:18;99426.13;;;2.04;100.00
141;BME280;65;48.778;9.160;2023-01-28T14:19:43;99425.38;;;1.93;100.00
141;BME280;65;48.778;9.160;2023-01-28T14:22:15;99432.31;;;1.94;100.00
141;BME280;65;48.778;9.160;2023-01-28T14:24:41;99430.53;;;1.99;100.00
141;BME280;65;48.778;9.160;2023-01-28T14:27:26;99439.13;;;2.10;100.00
141;BME280;65;48.778;9.160;2023-01-28T14:32:33;99441.75;;;2.07;100.00
141;BME280;65;48.778;9.160;2023-01-28T14:35:06;99443.41;;;2.14;100.00
141;BME280;65;48.778;9.160;2023-01-28T14:37:33;99441.63;;;2.21;100.00
141;BME280;65;48.778;9.160;2023-01-28T14:40:10;99442.47;;;2.23;100.00
141;BME280;65;48.778;9.160;2023-01-28T14:42:45;99444.28;;;2.16;100.00
141;BME280;65;48.778;9.160;2023-01-28T14:57:08;99464.28;;;2.16;98.14
141;BME280;65;48.778;9.160;2023-01-28T14:59:51;99466.94;;;2.08;97.28
141;BME280;65;48.778;9.160;2023-01-28T15:02:23;99472.28;;;1.93;99.04
141;BME280;65;48.778;9.160;2023-01-28T15:04:50;99466.16;;;1.99;98.23
141;BME280;65;48.778;9.160;2023-01-28T15:07:18;99466.25;;;1.89;98.51
141;BME280;65;48.778;9.160;2023-01-28T15:09:44;99469.72;;;1.88;98.30
141;BME280;65;48.778;9.160;2023-01-28T15:12:10;99467.09;;;1.92;98.13
141;BME280;65;48.778;9.160;2023-01-28T15:14:37;99477.44;;;2.02;96.66
141;BME280;65;48.778;9.160;2023-01-28T15:17:04;99477.53;;;1.88;98.33
141;BME280;65;48.778;9.160;2023-01-28T15:19:32;99482.78;;;1.85;99.82
141;BME280;65;48.778;9.160;2023-01-28T15:22:04;99486.06;;;2.07;96.88
141;BME280;65;48.778;9.160;2023-01-28T15:24:33;99492.28;;;1.93;98.53
141;BME280;65;48.778;9.160;2023-01-28T15:27:00;99488.00;;;1.84;98.84
141;BME280;65;48.778;9.160;2023-01-28T15:29:33;99496.66;;;1.90;98.76
141;BME280;65;48.778;9.160;2023-01-28T15:32:00;99493.16;;;1.92;97.55
141;BME280;65;48.778;9.160;2023-01-28T15:34:26;99494.03;;;1.90;97.91
141;BME280;65;48.778;9.160;2023-01-28T15:36:59;99500.13;;;1.91;97.79
141;BME280;65;48.778;9.160;2023-01-28T15:39:26;99501.00;;;1.88;97.80
141;BME280;65;48.778;9.160;2023-01-28T15:42:01;99504.50;;;1.86;98.22
141;BME280;65;48.778;9.160;2023-01-28T15:44:32;99496.66;;;1.89;97.54
141;BME280;65;48.778;9.160;2023-01-28T15:46:59;99494.97;;;1.82;98.13
141;BME280;65;48.778;9.160;2023-01-28T15:49:36;99506.22;;;1.87;98.38
141;BME280;65;48.778;9.160;2023-01-28T15:52:05;99500.19;;;1.80;98.00
141;BME280;65;48.778;9.160;2023-01-28T15:54:36;99501.09;;;1.73;99.16
141;BME280;65;48.778;9.160;2023-01-28T15:57:19;99513.28;;;1.74;98.92
141;BME280;65;48.778;9.160;2023-01-28T15:59:46;99510.69;;;1.67;99.13
141;BME280;65;48.778;9.160;2023-01-28T16:02:20;99516.78;;;1.66;98.90
141;BME280;65;48.778;9.160;2023-01-28T16:05:04;99515.06;;;1.62;99.07
141;BME280;65;48.778;9.160;2023-01-28T16:07:32;99520.28;;;1.60;98.91
141;BME280;65;48.778;9.160;2023-01-28T16:10:18;99520.34;;;1.49;99.24
141;BME280;65;48.778;9.160;2023-01-28T16:12:52;99525.50;;;1.57;98.51
141;BME280;65;48.778;9.160;2023-01-28T16:15:20;99529.84;;;1.59;98.11
141;BME280;65;48.778;9.160;2023-01-28T16:17:47;99532.41;;;1.63;97.72
141;BME280;65;48.778;9.160;2023-01-28T16:24:26;99533.34;;;1.55;97.92
141;BME280;65;48.778;9.160;2023-01-28T16:29:44;99531.63;;;1.48;97.69
141;BME280;65;48.778;9.160;2023-01-28T16:32:33;99537.69;;;1.50;97.73
141;BME280;65;48.778;9.160;2023-01-28T16:34:59;99531.63;;;1.50;97.64
141;BME280;65;48.778;9.160;2023-01-28T16:37:25;99534.19;;;1.56;96.95
141;BME280;65;48.778;9.160;2023-01-28T16:39:52;99540.31;;;1.47;97.47
141;BME280;65;48.778;9.160;2023-01-28T16:42:20;99535.94;;;1.52;96.89
141;BME280;65;48.778;9.160;2023-01-28T16:44:46;99536.88;;;1.44;97.60
141;BME280;65;48.778;9.160;2023-01-28T16:47:11;99543.81;;;1.43;97.32
141;BME280;65;48.778;9.160;2023-01-28T16:49:37;99542.91;;;1.50;96.91
141;BME280;65;48.778;9.160;2023-01-28T16:52:03;99540.34;;;1.44;96.90
141;BME280;65;48.778;9.160;2023-01-28T16:54:29;99541.22;;;1.43;97.24